Time;durP1;ratioP1;P1;durP2;ratioP2;P2;SDS_P1;SDS_P2;PMS_P1;PMS_P2;Temp;Humidity;BMP_temperature;BMP_pressure;BME280_temperature;BME280_humidity;BME280_pressure;Samples;Min_cycle;Max_cycle;Signal;HPM_P1;HPM_P2
2024/04/11 00:01:33;;;;;;;12.80;7.63;;;;;;;8.73;84.96;99588.56;4462909;26;20538;-83
2024/04/11 00:03:39;;;;;;;8.00;6.40;;;;;;;8.68;85.34;99578.34;4472194;26;20565;-83
2024/04/11 00:05:45;;;;;;;11.40;6.90;;;;;;;8.66;85.31;99581.88;4468956;26;20636;-83
2024/04/11 00:07:50;;;;;;;10.77;6.80;;;;;;;8.65;85.57;99582.81;4442281;26;20562;-84
2024/04/11 00:09:54;;;;;;;10.10;5.90;;;;;;;8.64;85.58;99581.09;4467327;26;20577;-83
2024/04/11 00:11:59;;;;;;;8.10;4.87;;;;;;;8.65;85.40;99575.00;4456502;26;20618;-84
2024/04/11 00:14:03;;;;;;;8.70;4.25;;;;;;;8.64;85.41;99574.13;4466823;26;20581;-83
2024/04/11 00:16:09;;;;;;;7.40;4.20;;;;;;;8.64;85.14;99578.50;4459237;26;20236;-83
2024/04/11 00:18:13;;;;;;;4.93;4.00;;;;;;;8.59;84.91;99570.88;4456472;26;20575;-83
2024/04/11 00:20:19;;;;;;;5.37;3.40;;;;;;;8.53;85.98;99560.69;4475920;26;21415;-83
2024/04/11 00:22:25;;;;;;;8.33;4.00;;;;;;;8.53;85.08;99559.84;4436188;26;20564;-83
2024/04/11 00:24:30;;;;;;;10.10;4.07;;;;;;;8.52;85.46;99558.16;4458255;26;20563;-84
2024/04/11 00:26:33;;;;;;;5.60;3.63;;;;;;;8.47;85.56;99560.09;4456734;26;20685;-84
2024/04/11 00:28:39;;;;;;;6.67;4.40;;;;;;;8.47;85.98;99554.88;4459842;26;20562;-84
2024/04/11 00:30:43;;;;;;;5.17;3.63;;;;;;;8.44;85.78;99551.56;4463335;26;21138;-83
2024/04/11 00:32:49;;;;;;;5.77;3.37;;;;;;;8.38;85.84;99541.38;4438910;26;21159;-84
2024/04/11 00:34:53;;;;;;;7.13;3.93;;;;;;;8.35;85.55;99547.53;4443935;26;20570;-84
2024/04/11 00:36:59;;;;;;;5.00;3.50;;;;;;;8.36;86.10;99557.03;4463380;26;20740;-83
2024/04/11 00:39:05;;;;;;;5.93;3.60;;;;;;;8.33;86.11;99554.53;4444141;26;20578;-83
2024/04/11 00:41:11;;;;;;;5.50;3.53;;;;;;;8.33;85.87;99551.94;4463167;26;20570;-83
2024/04/11 00:43:14;;;;;;;4.90;3.40;;;;;;;8.33;86.05;99554.53;4433908;26;20874;-83
2024/04/11 00:45:20;;;;;;;5.22;3.55;;;;;;;8.30;86.13;99558.97;4461606;26;20286;-83
2024/04/11 00:47:23;;;;;;;6.20;3.53;;;;;;;8.26;85.57;99560.00;4455633;26;20812;-83
2024/04/11 00:49:29;;;;;;;6.83;3.63;;;;;;;8.23;85.79;99555.75;4443069;26;20248;-83
2024/04/11 00:51:32;;;;;;;6.03;3.55;;;;;;;8.16;85.63;99546.50;4467409;26;20566;-83
2024/04/11 00:53:40;;;;;;;5.22;3.63;;;;;;;8.14;85.87;99550.88;4457806;26;20259;-82
2024/04/11 00:55:47;;;;;;;6.20;3.58;;;;;;;8.15;86.03;99550.00;4470348;26;20273;-82
2024/04/11 00:57:53;;;;;;;7.53;4.90;;;;;;;8.14;86.08;99545.69;4438449;26;20734;-84
2024/04/11 00:59:57;;;;;;;5.55;3.70;;;;;;;8.07;85.85;99536.41;4465084;26;20310;-83
2024/04/11 01:02:02;;;;;;;5.45;3.00;;;;;;;8.04;85.81;99540.84;4463648;26;20300;-83
2024/04/11 01:04:06;;;;;;;7.47;3.40;;;;;;;8.00;85.81;99536.69;4430522;26;20269;-83
2024/04/11 01:06:13;;;;;;;6.40;3.20;;;;;;;7.99;86.26;99545.34;4460261;26;20576;-84
2024/04/11 01:08:16;;;;;;;5.60;3.90;;;;;;;7.98;86.01;99549.72;4473222;26;20557;-83
2024/04/11 01:10:23;;;;;;;4.93;3.58;;;;;;;7.98;86.01;99539.31;4436973;26;20623;-83
2024/04/11 01:12:29;;;;;;;9.27;3.67;;;;;;;7.95;86.11;99551.56;4464075;26;20344;-83
2024/04/11 01:14:36;;;;;;;5.68;3.10;;;;;;;7.90;86.15;99545.69;4471319;26;20605;-83
2024/04/11 01:16:40;;;;;;;5.63;3.40;;;;;;;7.90;86.37;99550.03;4445116;26;20279;-84
2024/04/11 01:18:46;;;;;;;5.63;2.73;;;;;;;7.91;86.11;99552.56;4445774;26;20296;-83
2024/04/11 01:20:50;;;;;;;5.18;3.03;;;;;;;7.90;86.37;99555.22;4446460;26;20580;-83
2024/04/11 01:22:58;;;;;;;4.13;3.17;;;;;;;7.89;86.22;99545.72;4425555;26;20973;-83
2024/04/11 01:25:01;;;;;;;5.75;3.30;;;;;;;7.88;86.23;99544.03;4436421;26;20245;-84
2024/04/11 01:27:08;;;;;;;5.25;3.15;;;;;;;7.82;86.32;99542.50;4464896;26;20267;-84
2024/04/11 01:29:11;;;;;;;5.63;3.20;;;;;;;7.83;86.26;99558.91;4469280;26;20244;-83
2024/04/11 01:31:17;;;;;;;6.43;3.60;;;;;;;7.83;86.25;99559.75;4458509;26;20240;-84
2024/04/11 01:33:21;;;;;;;7.65;3.30;;;;;;;7.82;86.42;99557.22;4437658;26;20776;-83
2024/04/11 01:35:27;;;;;;;6.20;3.90;;;;;;;7.81;86.58;99551.19;4443526;26;24557;-83
2024/04/11 01:37:32;;;;;;;4.75;3.33;;;;;;;7.85;86.35;99564.91;4453802;26;20615;-83
2024/04/11 01:39:40;;;;;;;5.75;3.40;;;;;;;7.83;86.57;99561.53;4446507;26;20240;-83
2024/04/11 01:41:43;;;;;;;6.83;3.53;;;;;;;7.80;86.21;99561.63;4463590;26;20278;-83
2024/04/11 01:43:49;;;;;;;3.78;3.30;;;;;;;7.79;86.69;99567.72;4464037;26;21249;-83
2024/04/11 01:45:52;;;;;;;4.95;3.50;;;;;;;7.75;86.50;99569.56;4439041;26;20345;-83
2024/04/11 01:47:58;;;;;;;5.35;3.65;;;;;;;7.75;86.55;99571.31;4461778;26;20916;-83
2024/04/11 01:50:03;;;;;;;4.60;3.20;;;;;;;7.69;86.91;99559.38;4474928;26;20759;-84
2024/04/11 01:52:09;;;;;;;11.95;4.15;;;;;;;7.69;87.01;99561.97;4469197;26;20243;-83
2024/04/11 01:54:13;;;;;;;5.53;3.50;;;;;;;7.69;86.94;99558.53;4470112;26;20239;-83
2024/04/11 01:56:21;;;;;;;4.60;2.93;;;;;;;7.68;87.10;99562.91;4462563;26;20321;-83
2024/04/11 01:58:24;;;;;;;4.47;3.15;;;;;;;7.67;87.37;99568.97;4459027;26;20622;-83
2024/04/11 02:00:29;;;;;;;6.53;3.10;;;;;;;7.63;87.23;99561.34;4465687;26;20886;-84
2024/04/11 02:02:32;;;;;;;8.82;3.35;;;;;;;7.58;86.45;99558.06;4469550;26;20644;-83
2024/04/11 02:04:38;;;;;;;6.33;3.30;;;;;;;7.55;86.74;99555.56;4458012;26;20749;-84
2024/04/11 02:06:41;;;;;;;4.50;3.15;;;;;;;7.50;86.66;99560.03;4469779;26;20641;-84
2024/04/11 02:08:49;;;;;;;3.58;2.60;;;;;;;7.49;86.72;99554.00;4463304;26;20791;-84
2024/04/11 02:10:52;;;;;;;8.97;3.43;;;;;;;7.49;86.90;99572.19;4469535;26;20271;-84
2024/04/11 02:13:01;;;;;;;5.20;3.40;;;;;;;7.51;86.77;99561.75;4469104;26;20533;-84
2024/04/11 02:15:06;;;;;;;5.20;3.10;;;;;;;7.49;87.24;99566.97;4455083;26;20726;-84
2024/04/11 02:17:12;;;;;;;6.47;3.28;;;;;;;7.47;87.17;99559.28;4465560;26;20316;-83
2024/04/11 02:19:16;;;;;;;8.50;3.38;;;;;;;7.45;87.33;99561.09;4485011;26;20243;-83
2024/04/11 02:21:24;;;;;;;5.15;3.35;;;;;;;7.43;86.71;99561.16;4451514;26;20239;-84
2024/04/11 02:23:28;;;;;;;4.70;2.90;;;;;;;7.45;87.18;99561.09;4460308;26;20252;-84
2024/04/11 02:25:34;;;;;;;4.25;3.22;;;;;;;7.46;87.16;99566.25;4438585;26;20639;-83
2024/04/11 02:27:38;;;;;;;6.05;3.40;;;;;;;7.48;86.99;99576.56;4434171;26;20860;-84
2024/04/11 02:29:47;;;;;;;5.10;3.60;;;;;;;7.44;87.20;99569.78;4454675;26;20284;-83
2024/04/11 02:31:50;;;;;;;6.80;4.00;;;;;;;7.45;87.67;99569.72;4460313;26;20245;-83
2024/04/11 02:33:57;;;;;;;5.45;3.15;;;;;;;7.34;86.98;99573.59;4428461;26;20279;-83
2024/04/11 02:36:00;;;;;;;6.05;3.40;;;;;;;7.22;86.53;99572.22;4458187;26;20284;-83
2024/04/11 02:38:06;;;;;;;5.55;3.30;;;;;;;7.17;86.65;99565.47;4438179;26;20267;-83
2024/04/11 02:40:10;;;;;;;5.25;2.90;;;;;;;7.14;86.79;99570.75;4460733;26;20496;-83
2024/04/11 02:42:16;;;;;;;5.35;3.15;;;;;;;7.11;87.11;99568.25;4456686;26;20245;-83
2024/04/11 02:44:19;;;;;;;5.65;3.10;;;;;;;7.08;87.07;99577.00;4458414;26;20243;-83
2024/04/11 02:46:28;;;;;;;6.53;3.15;;;;;;;7.10;87.29;99585.56;4459300;26;20259;-83
2024/04/11 02:48:32;;;;;;;6.00;3.20;;;;;;;7.09;87.70;99578.66;4453129;26;20236;-83
2024/04/11 02:50:37;;;;;;;4.20;3.28;;;;;;;7.07;87.57;99574.44;4469766;26;20242;-83
2024/04/11 02:52:41;;;;;;;4.43;3.25;;;;;;;7.05;87.52;99581.41;4458869;26;20294;-83
2024/04/11 02:54:44;;;;;;;7.57;3.33;;;;;;;7.04;87.49;99577.13;4435894;26;20595;-83
2024/04/11 02:56:50;;;;;;;4.75;3.33;;;;;;;7.03;87.91;99575.41;4445568;26;20732;-83
2024/04/11 02:58:55;;;;;;;5.82;3.30;;;;;;;7.01;87.36;99576.38;4472069;26;20231;-83
2024/04/11 03:01:04;;;;;;;4.65;3.55;;;;;;;7.04;87.49;99574.53;4463110;26;20298;-83
2024/04/11 03:03:11;;;;;;;4.28;3.17;;;;;;;6.99;87.57;99580.75;4459909;26;20248;-83
2024/04/11 03:05:19;;;;;;;6.15;3.10;;;;;;;6.96;88.08;99579.13;4460201;26;20297;-81
2024/04/11 03:07:22;;;;;;;4.88;3.60;;;;;;;6.95;88.62;99586.94;4462557;26;20285;-83
2024/04/11 03:09:27;;;;;;;8.43;4.43;;;;;;;6.95;88.48;99585.19;4463924;26;20749;-83
2024/04/11 03:11:30;;;;;;;6.90;3.65;;;;;;;6.99;88.78;99588.53;4461494;26;20302;-83
2024/04/11 03:13:36;;;;;;;5.15;3.33;;;;;;;6.98;88.03;99586.84;4436628;26;20257;-83
2024/04/11 03:15:40;;;;;;;5.05;3.47;;;;;;;6.94;88.29;99588.66;4449142;26;20259;-83
2024/04/11 03:17:43;;;;;;;5.18;3.70;;;;;;;6.91;88.52;99593.94;4482918;26;20243;-84
2024/04/11 03:19:52;;;;;;;4.05;3.60;;;;;;;6.88;88.70;99590.59;4445728;26;20905;-83
2024/04/11 03:21:56;;;;;;;8.15;3.35;;;;;;;6.88;88.37;99594.03;4491113;26;20662;-83
2024/04/11 03:24:02;;;;;;;6.00;3.78;;;;;;;6.88;88.53;99601.81;4439312;26;20737;-83
2024/04/11 03:26:06;;;;;;;9.95;3.63;;;;;;;6.88;87.99;99593.19;4463556;26;20733;-83
2024/04/11 03:28:12;;;;;;;7.03;3.20;;;;;;;6.87;88.07;99594.06;4460660;26;20251;-83
2024/04/11 03:30:15;;;;;;;6.32;3.88;;;;;;;6.83;87.77;99585.53;4471935;26;20272;-83
2024/04/11 03:32:20;;;;;;;4.45;3.35;;;;;;;6.78;87.50;99596.94;4439667;26;20233;-83
2024/04/11 03:34:24;;;;;;;5.88;3.53;;;;;;;6.75;88.04;99586.66;4471005;26;21268;-83
2024/04/11 03:36:33;;;;;;;5.60;3.05;;;;;;;6.73;87.79;99585.88;4474097;26;20820;-83
2024/04/11 03:38:37;;;;;;;5.03;3.55;;;;;;;6.72;88.09;99591.94;4431998;26;20253;-83
2024/04/11 03:40:43;;;;;;;6.13;3.45;;;;;;;6.71;88.37;99588.50;4465025;26;20256;-83
2024/04/11 03:42:49;;;;;;;4.78;3.10;;;;;;;6.75;87.37;99595.31;4465160;26;20244;-83
2024/04/11 03:44:54;;;;;;;5.03;3.10;;;;;;;6.75;88.00;99592.72;4452315;26;21017;-83
2024/04/11 03:46:58;;;;;;;8.02;3.85;;;;;;;6.75;87.85;99594.44;4465785;26;20257;-83
2024/04/11 03:49:06;;;;;;;7.00;3.65;;;;;;;6.81;88.83;99602.91;4439869;26;20284;-83
2024/04/11 03:51:13;;;;;;;11.40;4.00;;;;;;;6.84;88.43;99596.75;4470946;26;20283;-83
2024/04/11 03:53:21;;;;;;;5.32;3.47;;;;;;;6.81;88.17;99596.84;4462052;26;20592;-83
2024/04/11 03:55:25;;;;;;;8.43;3.70;;;;;;;6.80;88.26;99602.94;4438948;26;20248;-83
2024/04/11 03:57:32;;;;;;;7.03;3.72;;;;;;;6.82;87.75;99608.94;4440825;26;20413;-83
2024/04/11 03:59:36;;;;;;;5.78;3.70;;;;;;;6.81;87.68;99607.22;4458015;26;20247;-83
2024/04/11 04:01:44;;;;;;;6.13;3.20;;;;;;;6.76;87.57;99611.69;4442595;26;20236;-83
2024/04/11 04:03:51;;;;;;;5.78;3.55;;;;;;;6.72;87.36;99610.06;4460468;26;20280;-83
2024/04/11 04:05:58;;;;;;;4.68;3.55;;;;;;;6.72;87.92;99607.47;4487436;26;20778;-82
2024/04/11 04:08:01;;;;;;;5.45;3.42;;;;;;;6.68;87.42;99608.47;4435454;26;20904;-83
2024/04/11 04:10:12;;;;;;;5.03;3.45;;;;;;;6.62;87.07;99599.13;4453137;26;20819;-83
2024/04/11 04:12:17;;;;;;;6.18;3.60;;;;;;;6.57;87.24;99585.47;4457785;26;20296;-83
2024/04/11 04:14:24;;;;;;;3.90;3.15;;;;;;;6.58;87.20;99594.06;4459855;26;20810;-83
2024/04/11 04:16:28;;;;;;;5.38;3.85;;;;;;;6.56;87.02;99596.72;4429994;26;20292;-83
2024/04/11 04:18:36;;;;;;;5.50;3.90;;;;;;;6.56;87.68;99606.25;4453631;26;20248;-82
2024/04/11 04:20:42;;;;;;;5.93;3.80;;;;;;;6.56;87.97;99611.41;4462146;26;20241;-83
2024/04/11 04:22:50;;;;;;;7.95;3.90;;;;;;;6.53;87.68;99626.22;4481498;26;20331;-84
2024/04/11 04:24:53;;;;;;;6.10;4.00;;;;;;;6.50;87.43;99621.13;4451889;26;20348;-84
2024/04/11 04:27:04;;;;;;;8.20;4.40;;;;;;;6.49;87.76;99628.00;4456991;26;20718;-84
2024/04/11 04:29:09;;;;;;;6.55;4.13;;;;;;;6.51;87.54;99633.16;4447591;26;20681;-83
2024/04/11 04:31:17;;;;;;;5.97;4.30;;;;;;;6.50;87.58;99621.97;4459106;26;20740;-84
2024/04/11 04:33:20;;;;;;;6.78;4.03;;;;;;;6.46;86.87;99620.31;4423800;26;20686;-84
2024/04/11 04:35:28;;;;;;;6.40;4.35;;;;;;;6.41;86.83;99619.63;4463138;26;20676;-84
2024/04/11 04:37:31;;;;;;;7.30;4.35;;;;;;;6.39;88.22;99621.41;4430771;26;20787;-83
2024/04/11 04:39:41;;;;;;;5.07;3.95;;;;;;;6.39;87.94;99624.00;4467215;26;20239;-84
2024/04/11 04:41:44;;;;;;;7.03;4.75;;;;;;;6.42;88.18;99628.22;4466692;26;21625;-85
2024/04/11 04:43:54;;;;;;;10.27;4.55;;;;;;;6.46;88.34;99629.84;4438932;26;20252;-82
2024/04/11 04:45:58;;;;;;;9.02;4.60;;;;;;;6.42;88.30;99634.28;4455419;26;20238;-83
2024/04/11 04:48:04;;;;;;;6.78;4.93;;;;;;;6.43;88.24;99648.06;4455265;26;20247;-84
2024/04/11 04:50:08;;;;;;;5.28;4.47;;;;;;;6.42;88.28;99644.63;4487835;26;20235;-84
2024/04/11 04:52:13;;;;;;;6.13;4.75;;;;;;;6.41;88.18;99648.13;4454946;26;20384;-84
2024/04/11 04:54:19;;;;;;;7.15;4.50;;;;;;;6.38;88.48;99652.53;4454814;26;20242;-83
2024/04/11 04:56:25;;;;;;;7.05;4.40;;;;;;;6.39;88.17;99651.63;4460063;26;20247;-83
2024/04/11 04:58:28;;;;;;;7.63;4.50;;;;;;;6.37;88.23;99649.06;4469812;26;20250;-83
2024/04/11 05:00:36;;;;;;;6.80;4.50;;;;;;;6.40;88.43;99650.75;4471995;26;20860;-82
2024/04/11 05:02:40;;;;;;;6.20;4.35;;;;;;;6.37;87.93;99656.84;4462316;26;20242;-83
2024/04/11 05:04:48;;;;;;;8.55;5.22;;;;;;;6.33;88.29;99655.25;4462212;26;20287;-83
2024/04/11 05:06:52;;;;;;;8.65;5.15;;;;;;;6.35;88.71;99671.59;4469630;26;20317;-83
2024/04/11 05:08:58;;;;;;;8.45;5.25;;;;;;;6.41;89.19;99668.84;4470827;26;20293;-83
2024/04/11 05:11:10;;;;;;;6.90;4.75;;;;;;;6.51;88.62;99672.03;4467111;26;20274;-83
2024/04/11 05:13:18;;;;;;;9.85;5.22;;;;;;;6.55;88.82;99676.25;4453119;26;20247;-82
2024/04/11 05:15:25;;;;;;;7.35;4.88;;;;;;;6.56;88.63;99673.63;4479175;26;20260;-83
2024/04/11 05:17:33;;;;;;;10.38;4.63;;;;;;;6.59;88.05;99678.72;4459097;26;20779;-82
2024/04/11 05:19:36;;;;;;;8.20;4.35;;;;;;;6.65;87.71;99678.53;4473057;26;20242;-83
2024/04/11 05:21:42;;;;;;;8.13;4.28;;;;;;;6.71;88.20;99683.56;4468678;26;20798;-82
2024/04/11 05:23:45;;;;;;;5.97;4.47;;;;;;;6.80;88.10;99694.53;4456035;26;21044;-82
2024/04/11 05:25:51;;;;;;;6.80;4.75;;;;;;;6.92;88.28;99706.31;4461491;26;20278;-82
2024/04/11 05:27:54;;;;;;;10.18;4.80;;;;;;;7.07;87.77;99714.50;4458595;26;20384;-83
2024/04/11 05:30:01;;;;;;;7.07;4.53;;;;;;;7.22;87.89;99719.25;4459539;26;20306;-83
2024/04/11 05:32:05;;;;;;;9.45;4.72;;;;;;;7.31;87.47;99709.44;4447374;26;20315;-83
2024/04/11 05:34:16;;;;;;;10.75;4.60;;;;;;;7.38;86.65;99710.97;4426556;26;20285;-83
2024/04/11 05:36:24;;;;;;;6.93;4.68;;;;;;;7.51;86.58;99717.47;4453961;26;20314;-83
2024/04/11 05:38:30;;;;;;;8.75;4.93;;;;;;;7.62;87.22;99710.19;4469814;26;20247;-83
2024/04/11 05:40:34;;;;;;;11.88;5.65;;;;;;;7.75;86.74;99711.53;4457761;26;20299;-82
2024/04/11 05:42:44;;;;;;;9.77;4.40;;;;;;;7.86;86.71;99718.06;4463814;26;20347;-83
2024/04/11 05:44:47;;;;;;;7.75;4.55;;;;;;;7.99;86.85;99720.22;4469864;26;20269;-83
2024/04/11 05:46:53;;;;;;;11.88;4.80;;;;;;;8.13;85.56;99718.09;4428800;26;20272;-83
2024/04/11 05:48:57;;;;;;;6.70;4.20;;;;;;;8.32;85.01;99716.56;4466211;26;20717;-82
2024/04/11 05:51:06;;;;;;;6.70;4.85;;;;;;;8.49;85.61;99714.25;4441216;26;20245;-82
2024/04/11 05:53:14;;;;;;;8.65;5.28;;;;;;;8.68;84.41;99715.31;4469451;26;20355;-82
2024/04/11 05:55:20;;;;;;;8.63;4.32;;;;;;;8.89;83.33;99720.63;4445463;26;20243;-82
2024/04/11 05:57:24;;;;;;;10.38;4.68;;;;;;;9.08;82.26;99722.50;4440022;26;20278;-82
2024/04/11 05:59:31;;;;;;;11.40;6.03;;;;;;;9.21;81.59;99728.09;4452354;26;20711;-82
2024/04/11 06:01:36;;;;;;;5.90;4.40;;;;;;;9.36;81.49;99727.53;4493545;26;20906;-82
2024/04/11 06:03:46;;;;;;;6.77;4.30;;;;;;;9.51;80.74;99735.63;4463270;26;20559;-82
2024/04/11 06:05:51;;;;;;;9.20;4.30;;;;;;;9.68;81.16;99749.72;4481451;26;21090;-83
2024/04/11 06:07:59;;;;;;;6.70;4.47;;;;;;;9.79;79.75;99749.28;4454688;26;20318;-83
2024/04/11 06:10:04;;;;;;;6.93;4.60;;;;;;;9.89;79.36;99754.06;4451978;26;20664;-82
2024/04/11 06:12:11;;;;;;;7.57;4.83;;;;;;;10.04;79.87;99751.78;4441471;26;20674;-82
2024/04/11 06:14:15;;;;;;;8.63;4.63;;;;;;;10.17;79.23;99752.97;4436373;26;20556;-83
2024/04/11 06:16:20;;;;;;;5.25;4.35;;;;;;;10.31;78.50;99752.41;4431451;26;20563;-82
2024/04/11 06:18:28;;;;;;;7.00;4.63;;;;;;;10.43;79.18;99748.41;4459793;26;20349;-82
2024/04/11 06:20:33;;;;;;;6.20;4.60;;;;;;;10.60;79.17;99753.75;4461431;26;20546;-82
2024/04/11 06:22:39;;;;;;;11.53;5.17;;;;;;;10.74;78.20;99761.84;4439013;26;20566;-83
2024/04/11 06:24:49;;;;;;;8.30;4.93;;;;;;;10.89;77.30;99767.25;4427524;26;20717;-83
2024/04/11 06:26:52;;;;;;;6.63;4.60;;;;;;;10.99;77.33;99762.47;4471943;26;20618;-82
2024/04/11 06:28:58;;;;;;;8.47;4.83;;;;;;;11.06;78.49;99764.75;4464615;26;20611;-82
2024/04/11 06:31:01;;;;;;;6.80;4.90;;;;;;;11.23;77.98;99761.41;4439306;26;20662;-82
2024/04/11 06:33:08;;;;;;;6.17;5.00;;;;;;;11.43;78.44;99763.06;4471477;26;20713;-81
2024/04/11 06:35:13;;;;;;;6.47;5.63;;;;;;;11.61;77.45;99758.81;4447792;26;21039;-82
2024/04/11 06:37:20;;;;;;;6.97;4.90;;;;;;;11.82;76.81;99753.44;4432004;26;20653;-81
2024/04/11 06:39:25;;;;;;;10.93;4.90;;;;;;;11.99;76.08;99766.56;4466941;26;21153;-83
2024/04/11 06:41:33;;;;;;;6.93;5.00;;;;;;;12.08;76.67;99761.75;4456849;26;20752;-82
2024/04/11 06:43:37;;;;;;;10.53;4.97;;;;;;;12.20;76.86;99770.78;4446982;26;20569;-83
2024/04/11 06:45:45;;;;;;;6.63;4.30;;;;;;;12.31;77.35;99775.44;4453078;26;20566;-82
2024/04/11 06:47:47;;;;;;;7.40;4.70;;;;;;;12.51;77.93;99777.03;4442246;26;20611;-82
2024/04/11 06:49:55;;;;;;;10.13;5.20;;;;;;;12.68;78.71;99784.94;4434872;26;20560;-82
2024/04/11 06:51:58;;;;;;;8.27;4.90;;;;;;;12.86;77.02;99780.50;4461267;26;20595;-82
2024/04/11 06:54:04;;;;;;;5.43;4.23;;;;;;;12.95;76.52;99780.03;4482424;26;20580;-83
2024/04/11 06:56:08;;;;;;;6.20;4.50;;;;;;;13.14;77.89;99783.41;4465356;26;20550;-83
2024/04/11 06:58:22;;;;;;;12.63;5.03;;;;;;;13.23;75.13;99780.31;4445059;26;20562;-83
2024/04/11 07:00:35;;;;;;;5.50;4.23;;;;;;;13.41;76.86;99781.94;4444829;26;20570;-83
2024/04/11 07:02:46;;;;;;;6.97;4.50;;;;;;;13.62;74.07;99786.06;4445547;26;20626;-83
2024/04/11 07:04:49;;;;;;;8.80;4.70;;;;;;;13.74;73.89;99791.50;4453859;26;20977;-82
2024/04/11 07:06:58;;;;;;;5.43;4.00;;;;;;;13.80;74.39;99789.41;4424310;26;20627;-83
2024/04/11 07:09:03;;;;;;;4.50;3.70;;;;;;;13.90;73.23;99785.34;4456492;26;20640;-83
2024/04/11 07:11:19;;;;;;;5.53;3.60;;;;;;;14.02;73.67;99795.16;4443310;26;21012;-81
2024/04/11 07:13:30;;;;;;;6.70;4.10;;;;;;;14.31;71.65;99786.53;4435162;26;20607;-82
2024/04/11 07:15:42;;;;;;;5.80;4.00;;;;;;;14.48;72.92;99796.94;4427407;26;20573;-83
2024/04/11 07:17:56;;;;;;;6.77;4.20;;;;;;;14.62;72.05;99800.47;4444171;26;20571;-83
2024/04/11 07:20:08;;;;;;;6.03;3.83;;;;;;;14.81;72.79;99804.59;4467793;26;20562;-83
2024/04/11 07:22:18;;;;;;;5.23;4.00;;;;;;;15.01;71.16;99796.38;4428461;26;20560;-83
2024/04/11 07:24:23;;;;;;;6.87;4.77;;;;;;;15.21;73.44;99801.34;4478505;26;20563;-83
2024/04/11 07:26:29;;;;;;;10.40;4.67;;;;;;;15.39;73.36;99805.50;4467089;26;20658;-83
2024/04/11 07:28:39;;;;;;;6.50;4.90;;;;;;;15.49;71.78;99801.41;4440323;26;20673;-83
2024/04/11 07:30:43;;;;;;;7.13;4.60;;;;;;;15.48;71.27;99792.63;4464167;26;20631;-80
2024/04/11 07:32:49;;;;;;;5.83;4.13;;;;;;;15.58;71.07;99791.97;4438687;26;21031;-80
2024/04/11 07:34:53;;;;;;;6.13;4.67;;;;;;;15.74;71.44;99810.28;4464904;26;20547;-80
2024/04/11 07:36:58;;;;;;;5.90;4.40;;;;;;;15.81;70.94;99809.81;4468159;26;20541;-80
2024/04/11 07:39:03;;;;;;;7.37;4.30;;;;;;;15.91;69.37;99808.31;4459727;26;20553;-81
2024/04/11 07:41:16;;;;;;;6.00;4.20;;;;;;;16.01;69.92;99806.78;4427646;26;20669;-80
2024/04/11 07:43:21;;;;;;;10.03;4.40;;;;;;;16.07;70.49;99809.03;4450229;26;20626;-80
2024/04/11 07:45:30;;;;;;;6.27;4.60;;;;;;;16.13;68.56;99800.75;4462437;26;20563;-81
2024/04/11 07:47:37;;;;;;;9.17;3.93;;;;;;;16.27;68.04;99811.31;4460645;26;20570;-81
2024/04/11 07:49:59;;;;;;;6.83;4.10;;;;;;;16.47;68.44;99810.88;4468893;26;21053;-81
2024/04/11 07:52:05;;;;;;;6.03;4.17;;;;;;;16.57;68.08;99804.91;4458283;26;20577;-80
2024/04/11 07:54:13;;;;;;;6.33;4.07;;;;;;;16.72;66.82;99803.94;4462690;26;20633;-80
2024/04/11 07:56:27;;;;;;;7.13;3.97;;;;;;;16.78;66.03;99795.59;4471172;26;20568;-83
2024/04/11 07:58:33;;;;;;;4.90;3.30;;;;;;;16.93;65.31;99794.56;4442672;26;20654;-84
2024/04/11 08:00:39;;;;;;;7.13;3.40;;;;;;;16.99;64.57;99792.38;4450727;26;20970;-83
2024/04/11 08:02:44;;;;;;;5.00;3.70;;;;;;;17.15;66.24;99788.59;4472106;26;20617;-80
2024/04/11 08:04:47;;;;;;;5.70;3.60;;;;;;;17.26;64.96;99790.53;4476951;26;21066;-80
2024/04/11 08:06:54;;;;;;;4.23;3.57;;;;;;;17.31;66.13;99786.66;4460348;26;20613;-81
2024/04/11 08:08:57;;;;;;;6.67;3.50;;;;;;;17.43;64.37;99783.19;4434971;26;20679;-80
2024/04/11 08:11:06;;;;;;;5.33;3.60;;;;;;;17.52;64.05;99793.94;4462488;26;20680;-80
2024/04/11 08:13:10;;;;;;;4.93;3.00;;;;;;;17.54;64.31;99786.75;4456189;26;20619;-81
2024/04/11 08:15:19;;;;;;;5.80;3.30;;;;;;;17.59;63.06;99794.34;4442326;26;20904;-81
2024/04/11 08:17:25;;;;;;;5.50;3.70;;;;;;;17.75;65.76;99801.09;4457489;26;20560;-81
2024/04/11 08:19:31;;;;;;;8.30;4.07;;;;;;;17.83;63.50;99804.06;4459701;26;20577;-80
2024/04/11 08:21:46;;;;;;;7.00;3.60;;;;;;;17.89;63.19;99808.91;4459919;26;21030;-80
2024/04/11 08:23:52;;;;;;;8.57;3.80;;;;;;;17.98;64.42;99805.59;4448690;26;20658;-81
2024/04/11 08:25:55;;;;;;;6.40;4.40;;;;;;;17.96;63.59;99802.22;4482824;26;20565;-80
2024/04/11 08:28:02;;;;;;;6.63;4.67;;;;;;;18.02;63.31;99805.28;4444770;26;20573;-80
2024/04/11 08:30:09;;;;;;;5.20;3.60;;;;;;;18.11;63.28;99799.34;4476840;26;20590;-80
2024/04/11 08:32:13;;;;;;;8.37;4.13;;;;;;;18.28;63.33;99803.44;4439793;26;21021;-80
2024/04/11 08:34:22;;;;;;;5.50;3.83;;;;;;;18.47;65.41;99802.84;4487393;26;20668;-81
2024/04/11 08:36:29;;;;;;;6.27;4.60;;;;;;;18.51;63.78;99804.31;4461146;26;20606;-81
2024/04/11 08:38:33;;;;;;;8.33;4.50;;;;;;;18.56;63.21;99806.63;4433176;26;20562;-81
2024/04/11 08:40:40;;;;;;;8.30;4.40;;;;;;;18.62;61.35;99799.09;4436339;26;20649;-81
2024/04/11 08:42:44;;;;;;;6.17;4.03;;;;;;;18.64;60.82;99801.63;4469919;26;20599;-80
2024/04/11 08:44:51;;;;;;;7.70;4.53;;;;;;;18.71;61.41;99805.50;4465062;26;20564;-80
2024/04/11 08:46:54;;;;;;;5.63;4.40;;;;;;;18.73;62.79;99809.72;4474662;26;20575;-81
2024/04/11 08:49:00;;;;;;;7.17;4.60;;;;;;;18.79;61.65;99809.25;4455638;26;20621;-81
2024/04/11 08:51:14;;;;;;;7.80;4.50;;;;;;;18.95;62.80;99802.72;4451353;26;20588;-81
2024/04/11 08:53:21;;;;;;;8.43;4.60;;;;;;;19.00;61.18;99800.59;4456046;26;20556;-82
2024/04/11 08:55:24;;;;;;;9.87;4.23;;;;;;;19.06;61.73;99797.53;4444667;26;20584;-80
2024/04/11 08:57:28;;;;;;;7.20;3.77;;;;;;;19.17;61.92;99789.59;4462843;26;20668;-81
2024/04/11 08:59:34;;;;;;;8.20;3.93;;;;;;;19.23;60.80;99790.94;4447891;26;20584;-81
2024/04/11 09:01:37;;;;;;;6.90;3.73;;;;;;;19.33;60.81;99798.06;4445526;26;20584;-81
2024/04/11 09:03:47;;;;;;;6.93;3.80;;;;;;;19.32;59.71;99795.53;4460923;26;20685;-81
2024/04/11 09:05:51;;;;;;;6.93;2.90;;;;;;;19.38;59.63;99790.63;4461496;26;20549;-81
2024/04/11 09:08:05;;;;;;;3.97;2.70;;;;;;;19.33;57.96;99794.56;4457183;26;21131;-80
2024/04/11 09:10:09;;;;;;;5.83;3.67;;;;;;;19.33;60.92;99797.22;4470582;26;20948;-81
2024/04/11 09:12:16;;;;;;;5.73;3.53;;;;;;;19.52;58.50;99793.88;4466081;26;20566;-82
2024/04/11 09:14:20;;;;;;;7.67;3.47;;;;;;;19.63;61.22;99801.00;4474689;26;20623;-81
2024/04/11 09:16:29;;;;;;;6.97;3.70;;;;;;;19.75;60.99;99798.22;4435610;26;20574;-82
2024/04/11 09:18:33;;;;;;;6.13;3.93;;;;;;;19.77;60.58;99796.31;4469452;26;20926;-80
2024/04/11 09:20:39;;;;;;;9.97;4.47;;;;;;;19.88;63.31;99806.94;4461433;26;20688;-81
2024/04/11 09:22:50;;;;;;;6.63;5.00;;;;;;;19.88;60.47;99799.00;4467787;26;20637;-81
2024/04/11 09:25:07;;;;;;;4.73;3.60;;;;;;;19.90;59.56;99802.34;4436283;26;20559;-82
2024/04/11 09:27:11;;;;;;;7.47;3.50;;;;;;;19.87;59.29;99799.94;4441681;26;20567;-81
2024/04/11 09:29:17;;;;;;;6.23;3.37;;;;;;;19.82;57.92;99796.78;4427298;26;20912;-81
2024/04/11 09:31:29;;;;;;;5.97;3.03;;;;;;;19.86;58.79;99798.28;4474806;26;20567;-81
2024/04/11 09:33:39;;;;;;;5.97;3.10;;;;;;;19.93;58.36;99800.31;4433245;26;20585;-81
2024/04/11 09:35:46;;;;;;;4.83;3.10;;;;;;;20.03;60.25;99803.09;4468825;26;20567;-80
2024/04/11 09:37:59;;;;;;;8.30;4.13;;;;;;;20.17;61.37;99810.78;4451938;26;20895;-81
2024/04/11 09:40:11;;;;;;;5.50;3.07;;;;;;;20.16;58.50;99801.13;4457862;26;20633;-81
2024/04/11 09:42:25;;;;;;;5.23;3.00;;;;;;;20.13;56.33;99804.88;4442285;26;20689;-81
2024/04/11 09:44:31;;;;;;;6.57;3.10;;;;;;;20.10;55.34;99809.56;4443130;26;20616;-80
2024/04/11 09:46:41;;;;;;;4.70;2.70;;;;;;;20.06;56.45;99801.03;4449210;26;20566;-82
2024/04/11 09:48:47;;;;;;;6.17;3.00;;;;;;;20.20;57.69;99802.59;4463688;26;20647;-81
2024/04/11 09:50:54;;;;;;;7.23;2.90;;;;;;;20.23;59.18;99807.66;4458322;26;20562;-80
2024/04/11 09:52:58;;;;;;;5.73;2.87;;;;;;;20.22;59.02;99808.59;4454349;26;20626;-80
2024/04/11 09:55:07;;;;;;;5.33;2.90;;;;;;;20.22;57.79;99800.66;4474079;26;20621;-80
2024/04/11 09:57:12;;;;;;;6.10;3.03;;;;;;;20.22;57.95;99805.94;4463058;26;20612;-80
2024/04/11 09:59:19;;;;;;;6.03;3.03;;;;;;;20.23;57.30;99800.53;4443324;26;20676;-80